Time;durP1;ratioP1;P1;durP2;ratioP2;P2;SDS_P1;SDS_P2;PMS_P1;PMS_P2;Temp;Humidity;BMP_temperature;BMP_pressure;BME280_temperature;BME280_humidity;BME280_pressure;Samples;Min_cycle;Max_cycle;Signal;HPM_P1;HPM_P2
2022/11/24 00:02:08;;;;;;;20.00;9.00;;;7.00;99.90;;;;;;5113202;28;20036;-65
2022/11/24 00:04:34;;;;;;;26.27;10.13;;;7.00;99.90;;;;;;5112494;28;20116;-65
2022/11/24 00:06:59;;;;;;;20.63;10.20;;;7.00;99.90;;;;;;5096368;28;20100;-65
2022/11/24 00:09:25;;;;;;;20.13;9.48;;;7.10;99.90;;;;;;5112730;28;20036;-65
2022/11/24 00:11:51;;;;;;;19.50;8.70;;;7.00;99.90;;;;;;5113916;28;20471;-65
2022/11/24 00:14:16;;;;;;;21.23;9.23;;;7.00;99.90;;;;;;5112850;28;20039;-65
2022/11/24 00:16:42;;;;;;;18.83;9.90;;;7.00;99.90;;;;;;5113216;28;20415;-65
2022/11/24 00:19:09;;;;;;;16.75;9.20;;;7.00;99.90;;;;;;5113008;28;20388;-64
2022/11/24 00:21:36;;;;;;;16.55;9.15;;;7.00;99.90;;;;;;5113010;28;20044;-65
2022/11/24 00:24:02;;;;;;;19.40;9.30;;;7.00;99.90;;;;;;5112264;28;20069;-64
2022/11/24 00:26:30;;;;;;;18.67;9.27;;;7.00;99.90;;;;;;5112630;28;20047;-65
2022/11/24 00:28:58;;;;;;;21.55;8.98;;;7.00;99.90;;;;;;5113224;28;20046;-64
2022/11/24 00:31:27;;;;;;;18.60;8.18;;;6.90;99.90;;;;;;5094777;28;20051;-64
2022/11/24 00:33:55;;;;;;;16.88;8.18;;;6.90;99.90;;;;;;5112763;28;20070;-65
2022/11/24 00:36:23;;;;;;;24.75;9.13;;;6.90;99.90;;;;;;5112000;28;20059;-65
2022/11/24 00:38:54;;;;;;;22.90;9.30;;;6.90;99.90;;;;;;5111796;28;20495;-65
2022/11/24 00:41:20;;;;;;;27.58;9.50;;;6.90;99.90;;;;;;5112042;28;20535;-64
2022/11/24 00:43:45;;;;;;;17.45;9.10;;;6.90;99.90;;;;;;5095839;28;20039;-64
2022/11/24 00:46:11;;;;;;;20.15;8.98;;;6.90;99.90;;;;;;5111246;28;20486;-65
2022/11/24 00:48:37;;;;;;;19.67;9.23;;;6.90;99.90;;;;;;5113714;28;20084;-64
2022/11/24 00:51:05;;;;;;;17.63;8.98;;;6.90;99.90;;;;;;5113699;28;20040;-65
2022/11/24 00:53:31;;;;;;;22.55;9.40;;;6.90;99.90;;;;;;5111596;28;20118;-65
2022/11/24 00:55:57;;;;;;;22.90;8.75;;;6.90;99.90;;;;;;5113726;28;20118;-65
2022/11/24 00:58:24;;;;;;;24.70;9.10;;;6.90;99.90;;;;;;5112973;28;20043;-65
2022/11/24 01:00:50;;;;;;;23.40;9.55;;;6.90;99.90;;;;;;5111525;28;20051;-64
2022/11/24 01:03:17;;;;;;;23.25;9.85;;;7.00;99.90;;;;;;5111681;28;20043;-65
2022/11/24 01:05:43;;;;;;;18.73;9.35;;;7.00;99.90;;;;;;5112149;28;20039;-64
2022/11/24 01:08:10;;;;;;;20.25;7.97;;;7.00;99.90;;;;;;5110701;28;20123;-64
2022/11/24 01:10:36;;;;;;;21.45;9.32;;;7.00;99.90;;;;;;5095025;28;20035;-65
2022/11/24 01:13:02;;;;;;;23.33;9.05;;;7.00;99.90;;;;;;5111759;28;20051;-65
2022/11/24 01:15:29;;;;;;;20.25;8.55;;;7.10;99.90;;;;;;5094851;28;20043;-65
2022/11/24 01:17:55;;;;;;;22.02;8.70;;;7.10;99.90;;;;;;5111991;28;20044;-64
2022/11/24 01:20:21;;;;;;;23.83;7.90;;;7.10;99.90;;;;;;5111970;28;20050;-64
2022/11/24 01:22:49;;;;;;;19.50;8.48;;;7.10;99.90;;;;;;5112994;28;20111;-64
2022/11/24 01:25:15;;;;;;;22.35;8.35;;;7.20;99.90;;;;;;5112569;28;20468;-64
2022/11/24 01:27:41;;;;;;;20.27;7.82;;;7.20;99.90;;;;;;5112525;28;20065;-64
2022/11/24 01:30:07;;;;;;;24.40;8.05;;;7.30;99.90;;;;;;5112536;28;20069;-64
2022/11/24 01:32:35;;;;;;;26.95;9.23;;;7.30;99.90;;;;;;5113213;28;20040;-64
2022/11/24 01:35:01;;;;;;;23.58;7.68;;;7.30;99.90;;;;;;5110917;28;20137;-64
2022/11/24 01:37:27;;;;;;;21.85;7.65;;;7.30;99.90;;;;;;5112157;28;20104;-64
2022/11/24 01:39:53;;;;;;;24.73;8.57;;;7.30;99.90;;;;;;5111927;28;20043;-65
2022/11/24 01:42:18;;;;;;;22.17;7.32;;;7.40;99.90;;;;;;5111517;28;20361;-64
2022/11/24 01:44:44;;;;;;;20.52;5.90;;;7.40;99.90;;;;;;5112039;28;20036;-64
2022/11/24 01:47:32;;;;;;;20.13;6.50;;;7.50;99.90;;;;;;5111231;28;20508;-64
2022/11/24 01:50:00;;;;;;;14.55;5.68;;;7.50;99.90;;;;;;5110782;28;20097;-64
2022/11/24 01:52:31;;;;;;;24.77;7.47;;;7.50;99.90;;;;;;5110882;28;20047;-64
2022/11/24 01:55:04;;;;;;;25.08;6.97;;;7.60;99.90;;;;;;5094204;28;20051;-64
2022/11/24 01:57:37;;;;;;;18.20;6.22;;;7.60;99.90;;;;;;5110623;28;20078;-64
2022/11/24 02:00:09;;;;;;;19.27;6.45;;;7.60;99.90;;;;;;5113055;28;20040;-64
2022/11/24 02:02:35;;;;;;;22.52;7.13;;;7.60;99.90;;;;;;5112243;28;20396;-64
2022/11/24 02:05:07;;;;;;;19.65;6.60;;;7.70;99.90;;;;;;5112692;28;20035;-64
2022/11/24 02:07:34;;;;;;;21.05;5.53;;;7.70;99.90;;;;;;5111460;28;20039;-64
2022/11/24 02:10:05;;;;;;;21.63;6.20;;;7.60;99.90;;;;;;5112143;28;20114;-64
2022/11/24 02:12:31;;;;;;;17.30;5.53;;;7.70;99.90;;;;;;5111470;28;20047;-64
2022/11/24 02:14:58;;;;;;;23.67;5.70;;;7.70;99.90;;;;;;5111642;28;20106;-64
2022/11/24 02:17:23;;;;;;;17.95;5.80;;;7.70;99.90;;;;;;5110261;28;20054;-64
2022/11/24 02:19:59;;;;;;;16.20;5.65;;;7.70;99.90;;;;;;5111202;28;20051;-64
2022/11/24 02:22:53;;;;;;;18.73;5.68;;;7.60;99.90;;;;;;5110782;28;20073;-65
2022/11/24 02:25:22;;;;;;;17.30;5.55;;;7.60;99.90;;;;;;5111417;28;20069;-64
2022/11/24 02:27:48;;;;;;;23.92;4.80;;;7.60;99.90;;;;;;5111192;28;20035;-64
2022/11/24 02:30:14;;;;;;;15.88;5.50;;;7.50;99.90;;;;;;5110785;28;20081;-65
2022/11/24 02:32:41;;;;;;;22.45;6.18;;;7.50;99.90;;;;;;5110443;28;20506;-64
2022/11/24 02:35:08;;;;;;;22.45;5.18;;;7.50;99.90;;;;;;5093590;28;20074;-65
2022/11/24 02:37:34;;;;;;;19.55;5.57;;;7.40;99.90;;;;;;5110112;28;20051;-65
2022/11/24 02:40:00;;;;;;;15.75;5.05;;;7.50;99.90;;;;;;5112626;28;20043;-65
2022/11/24 02:42:29;;;;;;;22.23;6.05;;;7.40;99.90;;;;;;5110646;28;20477;-65
2022/11/24 02:44:59;;;;;;;14.18;5.32;;;7.50;99.90;;;;;;5110545;28;20476;-65
2022/11/24 02:47:24;;;;;;;17.67;5.90;;;7.40;99.90;;;;;;5110624;28;20082;-65
2022/11/24 02:49:50;;;;;;;14.52;5.22;;;7.40;99.90;;;;;;5111987;28;20032;-65
2022/11/24 02:52:16;;;;;;;18.92;5.20;;;7.40;99.90;;;;;;5109868;28;20548;-65
2022/11/24 02:54:42;;;;;;;23.02;6.88;;;7.40;99.90;;;;;;5112357;28;20044;-65
2022/11/24 02:57:08;;;;;;;15.48;5.43;;;7.40;99.90;;;;;;5110539;28;20043;-65
2022/11/24 02:59:34;;;;;;;15.18;4.88;;;7.40;99.90;;;;;;5110071;28;20035;-65
2022/11/24 03:02:00;;;;;;;19.38;5.78;;;7.40;99.90;;;;;;5110963;28;20077;-65
2022/11/24 03:04:25;;;;;;;16.10;5.15;;;7.40;99.90;;;;;;5110285;28;20392;-65
2022/11/24 03:06:51;;;;;;;17.00;5.40;;;7.40;99.90;;;;;;5114225;28;20042;-65
2022/11/24 03:09:17;;;;;;;17.23;4.93;;;7.40;99.90;;;;;;5114274;28;20028;-65
2022/11/24 03:11:42;;;;;;;13.73;4.68;;;7.40;99.90;;;;;;5114484;28;20035;-65
2022/11/24 03:14:08;;;;;;;28.33;6.35;;;7.30;99.90;;;;;;5113212;28;20122;-65
2022/11/24 03:16:34;;;;;;;17.55;4.75;;;7.30;99.90;;;;;;5115924;28;20123;-65
2022/11/24 03:19:00;;;;;;;13.32;4.68;;;7.30;99.90;;;;;;5115647;28;20070;-65
2022/11/24 03:21:27;;;;;;;16.70;5.30;;;7.30;99.90;;;;;;5114285;28;20039;-65
2022/11/24 03:23:53;;;;;;;19.95;5.45;;;7.30;99.90;;;;;;5114428;28;20384;-65
2022/11/24 03:26:20;;;;;;;17.55;5.90;;;7.30;99.90;;;;;;5114003;28;20043;-65
2022/11/24 03:28:46;;;;;;;15.43;4.70;;;7.30;99.90;;;;;;5113334;28;20046;-65
2022/11/24 03:31:13;;;;;;;18.85;6.32;;;7.30;99.90;;;;;;5114958;28;20043;-65
2022/11/24 03:33:39;;;;;;;15.82;5.05;;;7.40;99.90;;;;;;5114201;28;20079;-65
2022/11/24 03:36:06;;;;;;;19.23;5.25;;;7.30;99.90;;;;;;5112572;28;20055;-65
2022/11/24 03:38:32;;;;;;;18.63;5.82;;;7.40;99.90;;;;;;5115405;28;20395;-64
2022/11/24 03:40:57;;;;;;;17.23;5.35;;;7.30;99.90;;;;;;5114545;28;20039;-64
2022/11/24 03:43:23;;;;;;;16.23;4.30;;;7.30;99.90;;;;;;5114935;28;20039;-65
2022/11/24 03:45:49;;;;;;;13.70;4.88;;;7.30;99.90;;;;;;5114996;28;20031;-65
2022/11/24 03:48:17;;;;;;;16.27;5.70;;;7.30;99.90;;;;;;5113612;28;20032;-64
2022/11/24 03:50:43;;;;;;;18.50;5.80;;;7.30;99.90;;;;;;5114113;28;20039;-65
2022/11/24 03:53:09;;;;;;;11.32;4.43;;;7.30;99.90;;;;;;5113381;28;20031;-65
2022/11/24 03:55:35;;;;;;;14.15;4.65;;;7.30;99.90;;;;;;5114284;28;20088;-65
2022/11/24 03:58:01;;;;;;;16.20;4.47;;;7.30;99.90;;;;;;5113759;28;20118;-64
2022/11/24 04:00:27;;;;;;;17.40;4.32;;;7.30;99.90;;;;;;5113050;28;20050;-64
2022/11/24 04:02:53;;;;;;;22.08;6.22;;;7.30;99.90;;;;;;5114017;28;20055;-65
2022/11/24 04:05:19;;;;;;;20.10;4.70;;;7.30;99.90;;;;;;5114443;28;20065;-65
2022/11/24 04:07:44;;;;;;;20.30;5.47;;;7.40;99.90;;;;;;5113369;28;20035;-65
2022/11/24 04:10:10;;;;;;;18.83;4.90;;;7.40;99.90;;;;;;5112269;28;20054;-64
2022/11/24 04:12:45;;;;;;;15.00;4.35;;;7.40;99.90;;;;;;5113562;28;20126;-65
2022/11/24 04:15:12;;;;;;;20.80;4.78;;;7.40;99.90;;;;;;5112684;28;20043;-65
2022/11/24 04:17:38;;;;;;;17.10;5.03;;;7.50;99.90;;;;;;5113348;28;20498;-65
2022/11/24 04:20:04;;;;;;;14.38;4.28;;;7.50;99.90;;;;;;5112421;28;20134;-65
2022/11/24 04:22:30;;;;;;;14.00;4.43;;;7.50;99.90;;;;;;5113002;28;20048;-65
2022/11/24 04:24:55;;;;;;;19.08;5.15;;;7.50;99.90;;;;;;5112365;28;20036;-65
2022/11/24 04:27:21;;;;;;;13.82;4.47;;;7.50;99.90;;;;;;5113763;28;20028;-65
2022/11/24 04:29:47;;;;;;;15.68;5.97;;;7.50;99.90;;;;;;5114432;28;20042;-65
2022/11/24 04:32:12;;;;;;;14.57;4.13;;;7.50;99.90;;;;;;5111672;28;20487;-65
2022/11/24 04:34:38;;;;;;;12.93;4.65;;;7.50;99.90;;;;;;5114274;28;20044;-65
2022/11/24 04:37:04;;;;;;;16.48;4.60;;;7.50;99.90;;;;;;5112646;28;20048;-65
2022/11/24 04:39:29;;;;;;;14.75;4.90;;;7.50;99.90;;;;;;5095858;28;20040;-65
2022/11/24 04:41:55;;;;;;;14.50;4.10;;;7.40;99.90;;;;;;5112635;28;20051;-65
2022/11/24 04:44:21;;;;;;;18.27;4.65;;;7.40;99.90;;;;;;5111404;28;20082;-65
2022/11/24 04:46:46;;;;;;;12.38;4.25;;;7.40;99.90;;;;;;5113988;28;20381;-65
2022/11/24 04:49:12;;;;;;;15.57;4.65;;;7.40;99.90;;;;;;5111944;28;20039;-65
2022/11/24 04:51:39;;;;;;;17.40;4.43;;;7.30;99.90;;;;;;5111788;28;20456;-65
2022/11/24 04:54:06;;;;;;;18.45;5.53;;;7.30;99.90;;;;;;5111948;28;20096;-65
2022/11/24 04:56:32;;;;;;;16.50;4.88;;;7.20;99.90;;;;;;5113774;28;20036;-65
2022/11/24 04:58:58;;;;;;;15.18;4.80;;;7.20;99.90;;;;;;5111527;28;20480;-65
2022/11/24 05:01:24;;;;;;;13.15;3.97;;;7.20;99.90;;;;;;5111627;28;20069;-65
2022/11/24 05:03:53;;;;;;;15.82;4.63;;;7.20;99.90;;;;;;5095244;28;20036;-64
2022/11/24 05:06:19;;;;;;;13.95;5.03;;;7.20;99.90;;;;;;5112094;28;20455;-64
2022/11/24 05:08:49;;;;;;;17.75;4.50;;;7.20;99.90;;;;;;5112188;28;20067;-65
2022/11/24 05:11:15;;;;;;;15.50;5.13;;;7.20;99.90;;;;;;5111689;28;20035;-65
2022/11/24 05:13:41;;;;;;;17.40;5.03;;;7.10;99.90;;;;;;5111268;28;20069;-65
2022/11/24 05:16:06;;;;;;;13.93;4.30;;;7.10;99.90;;;;;;5111414;28;20152;-65
2022/11/24 05:18:32;;;;;;;18.65;4.53;;;7.10;99.90;;;;;;5095028;28;20047;-65
2022/11/24 05:20:58;;;;;;;15.57;4.45;;;7.00;99.90;;;;;;5112630;28;20442;-65
2022/11/24 05:23:24;;;;;;;21.17;5.45;;;7.00;99.90;;;;;;5112664;28;20074;-64
2022/11/24 05:25:50;;;;;;;13.00;4.75;;;6.90;99.90;;;;;;5111910;28;20035;-65
2022/11/24 05:28:17;;;;;;;17.88;4.53;;;6.90;99.90;;;;;;5111035;28;20071;-65
2022/11/24 05:30:43;;;;;;;14.88;5.43;;;6.90;99.90;;;;;;5111568;28;20107;-65
2022/11/24 05:33:17;;;;;;;14.63;4.72;;;6.80;99.90;;;;;;5111218;28;20074;-65
2022/11/24 05:35:49;;;;;;;17.05;5.07;;;6.80;99.90;;;;;;5113099;28;20039;-65
2022/11/24 05:38:16;;;;;;;12.40;3.88;;;6.80;99.90;;;;;;5111151;28;20055;-65
2022/11/24 05:40:42;;;;;;;17.10;4.80;;;6.80;99.90;;;;;;5111994;28;20085;-65
2022/11/24 05:43:12;;;;;;;17.63;4.90;;;6.80;99.90;;;;;;5094369;28;20415;-65
2022/11/24 05:45:38;;;;;;;11.63;4.43;;;6.80;99.90;;;;;;5113189;28;20032;-65
2022/11/24 05:48:06;;;;;;;21.13;5.43;;;6.70;99.90;;;;;;5110246;28;20035;-65
2022/11/24 05:50:32;;;;;;;19.15;5.85;;;6.70;99.90;;;;;;5112890;28;20149;-65
2022/11/24 05:53:02;;;;;;;13.35;4.40;;;6.70;99.90;;;;;;5111631;28;20052;-64
2022/11/24 05:55:28;;;;;;;17.10;5.18;;;6.70;99.90;;;;;;5110596;28;20048;-65
2022/11/24 05:58:02;;;;;;;16.52;4.88;;;6.70;99.90;;;;;;5094645;28;20054;-65
2022/11/24 06:00:29;;;;;;;17.23;4.63;;;6.60;99.90;;;;;;5111143;28;20116;-65
2022/11/24 06:02:56;;;;;;;27.52;5.53;;;6.60;99.90;;;;;;5112156;28;20043;-65
2022/11/24 06:05:22;;;;;;;16.83;5.45;;;6.60;99.90;;;;;;5111102;28;20051;-65
2022/11/24 06:07:48;;;;;;;16.60;5.07;;;6.60;99.90;;;;;;5111268;28;20043;-65
2022/11/24 06:10:18;;;;;;;10.45;3.95;;;6.50;99.90;;;;;;5110325;28;20058;-65
2022/11/24 06:12:44;;;;;;;18.30;4.43;;;6.60;99.90;;;;;;5111240;28;20048;-65
2022/11/24 06:15:10;;;;;;;16.70;4.40;;;6.60;99.90;;;;;;5112131;28;20092;-65
2022/11/24 06:17:37;;;;;;;18.70;4.90;;;6.50;99.90;;;;;;5093550;28;20043;-65
2022/11/24 06:20:04;;;;;;;15.85;4.57;;;6.60;99.90;;;;;;5112184;28;20079;-64
2022/11/24 06:22:30;;;;;;;16.00;4.70;;;6.50;99.90;;;;;;5112423;28;20043;-65
2022/11/24 06:24:55;;;;;;;14.68;5.63;;;6.50;99.90;;;;;;5111326;28;20438;-65
2022/11/24 06:27:21;;;;;;;21.00;5.38;;;6.50;99.90;;;;;;5111833;28;20128;-65
2022/11/24 06:29:47;;;;;;;18.90;5.55;;;6.50;99.90;;;;;;5110442;28;20035;-65
2022/11/24 06:32:13;;;;;;;14.98;4.93;;;6.60;99.90;;;;;;5111865;28;20115;-65
2022/11/24 06:34:39;;;;;;;12.10;3.97;;;6.60;99.90;;;;;;5111094;28;20043;-65
2022/11/24 06:37:05;;;;;;;19.90;4.25;;;6.60;99.90;;;;;;5109585;28;20052;-65
2022/11/24 06:39:31;;;;;;;15.98;4.63;;;6.60;99.90;;;;;;5112046;28;20048;-64
2022/11/24 06:41:56;;;;;;;17.23;5.93;;;6.70;99.90;;;;;;5097771;28;20503;-64
2022/11/24 06:44:22;;;;;;;15.77;4.38;;;6.80;99.90;;;;;;5114987;28;20170;-64
2022/11/24 06:46:48;;;;;;;11.25;4.82;;;6.80;99.90;;;;;;5114993;28;20043;-64
2022/11/24 06:49:14;;;;;;;13.45;4.25;;;6.80;99.90;;;;;;5115549;28;20118;-64
2022/11/24 06:51:40;;;;;;;13.55;4.05;;;6.80;99.90;;;;;;5114075;28;20488;-64
2022/11/24 06:54:07;;;;;;;15.93;4.78;;;6.80;99.90;;;;;;5114504;28;20100;-65
2022/11/24 06:56:33;;;;;;;14.10;4.57;;;6.90;99.90;;;;;;5116199;28;20043;-64
2022/11/24 06:59:00;;;;;;;14.55;4.07;;;6.90;99.90;;;;;;5114221;28;20392;-65
2022/11/24 07:01:27;;;;;;;15.07;4.78;;;6.90;99.90;;;;;;5114117;28;20082;-65
2022/11/24 07:03:54;;;;;;;17.58;6.18;;;6.90;99.90;;;;;;5097516;28;20115;-64
2022/11/24 07:06:21;;;;;;;13.70;5.35;;;6.90;99.90;;;;;;5113409;28;20539;-64
2022/11/24 07:08:48;;;;;;;13.18;4.60;;;6.90;99.90;;;;;;5115916;28;20039;-64
2022/11/24 07:11:17;;;;;;;23.08;6.57;;;6.90;99.90;;;;;;5114954;28;20044;-64
2022/11/24 07:13:44;;;;;;;11.48;4.78;;;6.90;99.90;;;;;;5114803;28;20457;-64
2022/11/24 07:16:11;;;;;;;12.65;4.47;;;6.90;99.90;;;;;;5115068;28;20047;-64
2022/11/24 07:18:36;;;;;;;12.00;4.10;;;6.90;99.90;;;;;;5114425;28;20039;-64
2022/11/24 07:21:06;;;;;;;11.98;3.80;;;6.80;99.90;;;;;;5113405;27;20494;-64
2022/11/24 07:23:32;;;;;;;13.63;4.38;;;6.80;99.90;;;;;;5115678;28;20036;-64
2022/11/24 07:26:00;;;;;;;16.10;4.63;;;6.80;99.90;;;;;;5113393;28;20503;-64
2022/11/24 07:28:26;;;;;;;14.65;4.90;;;6.80;99.90;;;;;;5096684;28;20040;-64
2022/11/24 07:30:51;;;;;;;12.73;4.13;;;6.80;99.90;;;;;;5113995;28;20047;-64
2022/11/24 07:33:20;;;;;;;11.05;4.38;;;6.80;99.90;;;;;;5112929;28;20043;-64
2022/11/24 07:35:45;;;;;;;13.90;3.65;;;6.80;99.90;;;;;;5113722;28;20046;-64
2022/11/24 07:38:11;;;;;;;14.55;3.83;;;6.80;99.90;;;;;;5113303;28;20043;-64
2022/11/24 07:40:37;;;;;;;17.58;3.83;;;6.80;99.90;;;;;;5113365;28;20052;-64
2022/11/24 07:43:03;;;;;;;9.88;3.92;;;6.80;99.90;;;;;;5115364;28;20031;-64
2022/11/24 07:45:28;;;;;;;15.95;4.15;;;6.80;99.90;;;;;;5113396;28;20392;-64
2022/11/24 07:47:54;;;;;;;14.27;4.00;;;6.80;99.90;;;;;;5121986;27;20035;-64
2022/11/24 07:50:19;;;;;;;16.10;3.90;;;6.90;99.90;;;;;;5113282;28;20460;-64
2022/11/24 07:52:45;;;;;;;13.40;3.92;;;6.90;99.90;;;;;;5112894;28;20545;-64
2022/11/24 07:55:11;;;;;;;11.80;4.47;;;6.90;99.90;;;;;;5095478;28;20032;-65
2022/11/24 07:57:36;;;;;;;11.45;3.78;;;6.90;99.90;;;;;;5097755;27;20510;-65
2022/11/24 08:00:04;;;;;;;13.75;4.13;;;6.90;99.90;;;;;;5133912;27;20108;-65
2022/11/24 08:02:30;;;;;;;13.25;4.25;;;7.00;99.90;;;;;;5133569;27;20046;-64
2022/11/24 08:04:56;;;;;;;17.13;5.90;;;7.00;99.90;;;;;;5114725;27;20035;-64
2022/11/24 08:07:22;;;;;;;18.33;4.70;;;7.00;99.90;;;;;;5095057;28;20062;-64
2022/11/24 08:09:49;;;;;;;15.68;4.13;;;7.10;99.90;;;;;;5093552;28;20045;-64
2022/11/24 08:12:16;;;;;;;12.60;4.50;;;7.10;99.90;;;;;;5110168;28;20035;-64
2022/11/24 08:14:42;;;;;;;11.75;3.95;;;7.10;99.90;;;;;;5093677;28;20035;-64
2022/11/24 08:17:07;;;;;;;14.88;5.40;;;7.10;99.90;;;;;;5109346;28;20362;-64
2022/11/24 08:19:33;;;;;;;10.55;4.13;;;7.20;99.90;;;;;;5111823;28;20034;-64
2022/11/24 08:21:59;;;;;;;11.80;5.20;;;7.20;99.90;;;;;;5110657;28;20379;-64
2022/11/24 08:24:26;;;;;;;15.90;4.53;;;7.20;99.90;;;;;;5109059;28;20035;-65
2022/11/24 08:26:51;;;;;;;14.13;5.05;;;7.20;99.90;;;;;;5094245;28;20361;-64
2022/11/24 08:29:17;;;;;;;11.98;4.15;;;7.30;99.90;;;;;;5106666;28;20028;-64
2022/11/24 08:31:43;;;;;;;18.92;5.40;;;7.30;99.90;;;;;;5110392;28;20066;-64
2022/11/24 08:34:08;;;;;;;14.70;5.10;;;7.30;99.90;;;;;;5110008;28;20523;-64
2022/11/24 08:36:35;;;;;;;11.57;5.47;;;7.30;99.90;;;;;;5091619;28;20082;-64
2022/11/24 08:39:01;;;;;;;14.52;5.93;;;7.40;99.90;;;;;;5111054;28;20161;-64
2022/11/24 08:41:28;;;;;;;11.52;5.20;;;7.40;99.90;;;;;;5109255;28;20494;-64
2022/11/24 08:43:54;;;;;;;13.23;5.53;;;7.40;99.90;;;;;;5109945;28;20396;-64
2022/11/24 08:46:19;;;;;;;13.55;5.05;;;7.40;99.90;;;;;;5092787;28;20039;-64
2022/11/24 08:48:53;;;;;;;14.27;5.40;;;7.40;99.90;;;;;;5109771;28;20063;-65
2022/11/24 08:51:21;;;;;;;17.05;6.15;;;7.40;99.90;;;;;;5110212;28;20449;-65
2022/11/24 08:53:47;;;;;;;11.10;5.10;;;7.30;99.90;;;;;;5110142;28;20070;-64
2022/11/24 08:56:13;;;;;;;12.38;6.13;;;7.30;99.90;;;;;;5109795;28;20082;-64
2022/11/24 08:58:39;;;;;;;12.02;4.72;;;7.30;99.90;;;;;;5109207;28;20082;-64
2022/11/24 09:01:15;;;;;;;11.30;5.20;;;7.40;99.90;;;;;;5108992;28;20119;-65
2022/11/24 09:03:42;;;;;;;14.35;6.05;;;7.40;99.90;;;;;;5108863;28;20083;-65
2022/11/24 09:06:08;;;;;;;15.90;6.05;;;7.40;99.90;;;;;;5111984;28;20471;-64
2022/11/24 09:08:34;;;;;;;17.80;5.43;;;7.50;99.90;;;;;;5112143;28;20122;-64
2022/11/24 09:11:12;;;;;;;15.65;6.40;;;7.50;99.90;;;;;;5112634;28;20108;-64
2022/11/24 09:13:39;;;;;;;18.13;6.53;;;7.50;99.90;;;;;;5093669;28;20066;-63
2022/11/24 09:16:07;;;;;;;11.75;5.32;;;7.50;99.90;;;;;;5113795;28;20046;-63
2022/11/24 09:18:33;;;;;;;12.40;4.38;;;7.50;99.90;;;;;;5112905;28;20050;-65
2022/11/24 09:21:06;;;;;;;16.45;5.25;;;7.60;99.90;;;;;;5112802;28;20043;-62
2022/11/24 09:23:33;;;;;;;10.90;4.65;;;7.70;99.90;;;;;;5111814;28;20040;-64
2022/11/24 09:26:07;;;;;;;17.80;4.80;;;7.70;99.90;;;;;;5110998;28;20036;-64
2022/11/24 09:28:32;;;;;;;8.77;4.15;;;7.70;99.90;;;;;;5112142;28;20417;-64
2022/11/24 09:31:03;;;;;;;11.55;4.25;;;7.80;99.90;;;;;;5112554;28;20036;-64
2022/11/24 09:33:30;;;;;;;11.18;3.90;;;7.80;99.90;;;;;;5103843;28;20036;-63
2022/11/24 09:35:56;;;;;;;12.23;4.65;;;7.90;99.90;;;;;;5112415;28;20055;-63
2022/11/24 09:38:22;;;;;;;10.57;2.70;;;7.90;99.90;;;;;;5111028;28;20040;-64
2022/11/24 09:40:48;;;;;;;12.32;2.95;;;8.00;99.90;;;;;;5110645;28;20050;-64
2022/11/24 09:43:38;;;;;;;8.02;3.00;;;8.00;99.90;;;;;;5111342;28;20039;-64
2022/11/24 09:46:41;;;;;;;7.53;2.65;;;8.10;99.90;;;;;;5098988;28;20040;-64
2022/11/24 09:52:42;;;;;;;12.02;3.58;;;8.20;99.90;;;;;;5111118;28;20040;-64
2022/11/24 09:55:37;;;;;;;7.13;2.15;;;8.30;99.90;;;;;;5110128;28;20435;-63
2022/11/24 09:58:41;;;;;;;7.97;2.70;;;8.30;99.90;;;;;;5105850;28;20043;-64
2022/11/24 10:01:14;;;;;;;11.38;2.13;;;8.40;99.90;;;;;;5108975;28;20031;-64
2022/11/24 10:03:50;;;;;;;9.90;2.15;;;8.50;99.90;;;;;;5111155;28;20043;-64
2022/11/24 10:06:45;;;;;;;9.05;2.08;;;8.50;99.90;;;;;;5110902;28;20070;-64
2022/11/24 10:09:43;;;;;;;5.63;1.90;;;8.50;99.90;;;;;;5100216;28;20128;-64
2022/11/24 10:12:09;;;;;;;7.07;2.10;;;8.60;99.90;;;;;;5109586;28;20040;-65
2022/11/24 10:49:21;;;;;;;10.68;3.38;;;9.00;99.90;;;;;;5091861;28;20050;-65
2022/11/24 10:52:10;;;;;;;8.30;3.45;;;9.10;99.90;;;;;;5111212;28;20442;-65
2022/11/24 10:54:53;;;;;;;12.88;3.75;;;9.20;99.90;;;;;;5111480;28;20046;-66
2022/11/24 10:57:31;;;;;;;10.75;3.88;;;9.20;99.90;;;;;;5093504;28;20549;-66
2022/11/24 10:59:57;;;;;;;9.23;3.33;;;9.20;99.90;;;;;;5113303;28;20119;-65
2022/11/24 11:02:35;;;;;;;8.48;3.25;;;9.30;99.90;;;;;;5111943;28;20143;-65
2022/11/24 11:05:40;;;;;;;12.00;4.07;;;9.40;99.90;;;;;;5107965;28;20035;-65
2022/11/24 11:08:14;;;;;;;11.73;3.47;;;9.40;99.90;;;;;;5111588;28;20043;-65
2022/11/24 11:10:45;;;;;;;11.80;4.30;;;9.50;99.90;;;;;;5112366;28;20090;-64
2022/11/24 11:13:50;;;;;;;9.27;3.78;;;9.50;99.90;;;;;;5110949;28;20492;-65
2022/11/24 11:16:47;;;;;;;10.15;3.70;;;9.60;99.90;;;;;;5099771;28;20518;-65
2022/11/24 11:19:31;;;;;;;9.80;3.55;;;9.60;99.90;;;;;;5065765;28;20047;-65
2022/11/24 11:22:02;;;;;;;12.73;4.03;;;9.70;99.90;;;;;;5094630;28;20035;-65
2022/11/24 11:24:28;;;;;;;9.45;3.80;;;9.80;99.90;;;;;;5111057;28;20454;-65
2022/11/24 11:27:03;;;;;;;10.30;3.80;;;9.80;99.90;;;;;;5111106;28;20036;-65
2022/11/24 11:29:29;;;;;;;9.52;3.85;;;9.90;99.90;;;;;;5111557;28;20036;-65
2022/11/24 11:32:01;;;;;;;12.40;3.88;;;9.90;99.90;;;;;;5111227;28;20049;-65
2022/11/24 11:34:35;;;;;;;10.13;3.22;;;9.90;99.90;;;;;;5112755;28;20044;-65
2022/11/24 11:37:03;;;;;;;12.85;4.45;;;10.00;99.90;;;;;;5111553;28;20055;-65
2022/11/24 11:39:35;;;;;;;9.48;3.20;;;10.00;99.90;;;;;;5110009;28;20488;-65
2022/11/24 11:42:26;;;;;;;10.35;3.42;;;10.00;99.90;;;;;;5110985;28;20082;-65
2022/11/24 11:45:04;;;;;;;11.27;3.50;;;10.10;99.90;;;;;;5098080;28;20047;-65
2022/11/24 11:47:33;;;;;;;11.30;3.20;;;10.10;99.90;;;;;;5111946;28;20846;-65
2022/11/24 11:49:59;;;;;;;11.02;3.95;;;10.10;99.90;;;;;;5111917;28;20046;-65
2022/11/24 11:52:27;;;;;;;12.02;3.38;;;10.10;99.90;;;;;;5110437;28;20032;-65
2022/11/24 11:55:16;;;;;;;12.32;3.45;;;10.20;99.90;;;;;;5108506;28;20035;-65
2022/11/24 11:58:20;;;;;;;10.00;3.25;;;10.20;99.90;;;;;;5091461;28;20122;-64
2022/11/24 12:01:07;;;;;;;8.77;3.00;;;10.20;99.90;;;;;;5108099;28;20047;-65
2022/11/24 12:03:57;;;;;;;7.82;2.80;;;10.20;99.90;;;;;;5108617;28;20048;-65
2022/11/24 12:07:00;;;;;;;9.60;3.72;;;10.30;99.90;;;;;;5110198;28;20043;-64
2022/11/24 12:10:00;;;;;;;15.60;2.90;;;10.20;99.90;;;;;;5109596;28;20035;-65
2022/11/24 12:12:32;;;;;;;9.13;2.67;;;10.20;99.90;;;;;;5110297;28;20039;-64
2022/11/24 12:15:16;;;;;;;10.35;3.08;;;10.20;99.90;;;;;;5109228;28;20047;-65
2022/11/24 12:18:00;;;;;;;14.20;4.13;;;10.30;99.90;;;;;;5090162;28;20040;-65
2022/11/24 12:20:47;;;;;;;10.90;3.97;;;10.30;99.90;;;;;;5112488;28;20039;-65
2022/11/24 12:23:34;;;;;;;12.93;3.53;;;10.30;99.90;;;;;;5111932;28;20042;-65
2022/11/24 12:26:23;;;;;;;12.70;3.55;;;10.40;99.90;;;;;;5113325;28;20143;-65
2022/11/24 12:28:58;;;;;;;10.43;3.80;;;10.40;99.90;;;;;;5095060;28;20078;-65
2022/11/24 12:31:29;;;;;;;11.40;2.97;;;10.50;99.90;;;;;;5112477;28;20051;-65
2022/11/24 12:34:04;;;;;;;13.20;3.33;;;10.50;99.90;;;;;;5114198;28;20047;-65
2022/11/24 12:36:54;;;;;;;11.73;3.78;;;10.50;99.90;;;;;;5112186;28;20070;-65
2022/11/24 12:39:42;;;;;;;12.23;2.97;;;10.60;99.90;;;;;;5112424;28;20051;-66
2022/11/24 12:42:28;;;;;;;14.80;3.53;;;10.60;99.90;;;;;;5113393;28;20476;-65
2022/11/24 12:45:16;;;;;;;10.00;3.80;;;10.60;99.90;;;;;;5103075;28;20040;-65
2022/11/24 12:48:06;;;;;;;9.35;3.33;;;10.70;99.90;;;;;;5113658;28;20516;-66
2022/11/24 12:50:37;;;;;;;16.10;3.45;;;10.70;99.90;;;;;;5111809;28;20062;-65
2022/11/24 12:53:10;;;;;;;14.63;3.25;;;10.70;99.90;;;;;;5095687;28;20071;-65
2022/11/24 12:55:37;;;;;;;11.73;3.28;;;10.70;99.90;;;;;;5095829;28;20047;-66
2022/11/24 12:58:15;;;;;;;12.07;3.30;;;10.70;99.90;;;;;;5111713;28;20371;-65
2022/11/24 13:01:10;;;;;;;15.02;3.88;;;10.70;99.90;;;;;;5113787;28;20046;-66
2022/11/24 13:04:13;;;;;;;12.45;3.10;;;10.70;99.90;;;;;;5111634;28;20116;-65
2022/11/24 13:06:50;;;;;;;13.50;3.47;;;10.70;99.90;;;;;;5112297;28;20044;-65
2022/11/24 13:09:16;;;;;;;13.43;3.00;;;10.60;99.90;;;;;;5094802;28;20040;-65
2022/11/24 13:11:47;;;;;;;16.92;3.22;;;10.60;99.90;;;;;;5111633;28;20039;-65
2022/11/24 13:14:30;;;;;;;13.60;3.65;;;10.60;99.90;;;;;;5111569;28;20044;-65
2022/11/24 13:17:00;;;;;;;13.23;3.15;;;10.60;99.90;;;;;;5111799;28;20043;-64
2022/11/24 13:19:32;;;;;;;12.48;3.53;;;10.60;99.90;;;;;;5109784;28;20050;-66
2022/11/24 13:22:07;;;;;;;13.13;4.43;;;10.50;99.90;;;;;;5110797;28;20061;-67
2022/11/24 13:24:35;;;;;;;14.43;3.45;;;10.50;99.90;;;;;;5110002;28;20073;-66
2022/11/24 13:27:15;;;;;;;17.17;3.85;;;10.50;99.90;;;;;;5113369;28;20111;-67
2022/11/24 13:29:51;;;;;;;14.73;3.22;;;10.50;99.90;;;;;;5113591;28;20042;-67
2022/11/24 13:32:20;;;;;;;15.32;3.05;;;10.40;99.90;;;;;;5111570;28;20051;-67
2022/11/24 13:34:53;;;;;;;11.73;3.10;;;10.40;99.90;;;;;;5112134;28;20031;-67
2022/11/24 13:37:22;;;;;;;16.08;4.00;;;10.40;99.90;;;;;;5110773;28;20442;-69
2022/11/24 13:40:10;;;;;;;14.63;3.25;;;10.40;99.90;;;;;;5110647;28;20076;-70